sensor_id;sensor_type;location;lat;lon;timestamp;P1;P2;P0
72307;PMS5003;60257;42.638;23.376;2024-03-17T00:00:05;62.75;51.50;31.50
72307;PMS5003;60257;42.638;23.376;2024-03-17T00:02:10;61.25;50.00;32.50
72307;PMS5003;60257;42.638;23.376;2024-03-17T00:04:10;60.00;50.25;32.00
72307;PMS5003;60257;42.638;23.376;2024-03-17T00:06:10;62.00;52.00;32.25
72307;PMS5003;60257;42.638;23.376;2024-03-17T00:08:11;61.50;50.25;31.25
72307;PMS5003;60257;42.638;23.376;2024-03-17T00:10:11;64.75;50.25;29.50
72307;PMS5003;60257;42.638;23.376;2024-03-17T00:12:12;66.25;52.75;32.00
72307;PMS5003;60257;42.638;23.376;2024-03-17T00:14:12;59.00;49.00;31.00
72307;PMS5003;60257;42.638;23.376;2024-03-17T00:16:13;66.00;53.00;33.25
72307;PMS5003;60257;42.638;23.376;2024-03-17T00:18:13;62.50;52.00;31.00
72307;PMS5003;60257;42.638;23.376;2024-03-17T00:20:14;64.75;52.00;32.00
72307;PMS5003;60257;42.638;23.376;2024-03-17T00:22:19;68.00;53.25;32.00
72307;PMS5003;60257;42.638;23.376;2024-03-17T00:24:20;67.75;53.50;31.50
72307;PMS5003;60257;42.638;23.376;2024-03-17T00:26:21;70.25;55.25;32.50
72307;PMS5003;60257;42.638;23.376;2024-03-17T00:28:22;65.75;53.50;32.25
72307;PMS5003;60257;42.638;23.376;2024-03-17T00:30:23;65.75;53.25;32.25
72307;PMS5003;60257;42.638;23.376;2024-03-17T00:32:23;69.75;55.25;35.25
72307;PMS5003;60257;42.638;23.376;2024-03-17T00:34:24;65.75;54.25;33.25
72307;PMS5003;60257;42.638;23.376;2024-03-17T00:36:24;65.75;52.25;32.00
72307;PMS5003;60257;42.638;23.376;2024-03-17T00:38:24;66.00;54.50;33.50
72307;PMS5003;60257;42.638;23.376;2024-03-17T00:40:25;68.50;54.50;32.50
72307;PMS5003;60257;42.638;23.376;2024-03-17T00:42:25;67.00;54.75;32.25
72307;PMS5003;60257;42.638;23.376;2024-03-17T00:44:26;65.50;54.50;34.75
72307;PMS5003;60257;42.638;23.376;2024-03-17T00:46:27;63.25;51.25;30.75
72307;PMS5003;60257;42.638;23.376;2024-03-17T00:48:28;71.75;54.75;32.75
72307;PMS5003;60257;42.638;23.376;2024-03-17T00:50:28;67.50;54.50;34.00
72307;PMS5003;60257;42.638;23.376;2024-03-17T00:52:28;70.25;55.50;33.50
72307;PMS5003;60257;42.638;23.376;2024-03-17T00:54:29;66.50;53.75;32.25
72307;PMS5003;60257;42.638;23.376;2024-03-17T00:56:29;68.50;54.75;32.75
72307;PMS5003;60257;42.638;23.376;2024-03-17T00:58:30;69.25;56.00;34.75
72307;PMS5003;60257;42.638;23.376;2024-03-17T01:00:31;68.25;53.75;32.00
72307;PMS5003;60257;42.638;23.376;2024-03-17T01:02:33;67.00;54.75;34.00
72307;PMS5003;60257;42.638;23.376;2024-03-17T01:04:33;63.00;51.25;33.00
72307;PMS5003;60257;42.638;23.376;2024-03-17T01:06:34;63.75;53.00;32.00
72307;PMS5003;60257;42.638;23.376;2024-03-17T01:08:34;69.50;56.00;34.50
72307;PMS5003;60257;42.638;23.376;2024-03-17T01:10:38;66.50;54.25;36.25
72307;PMS5003;60257;42.638;23.376;2024-03-17T01:12:39;69.75;56.00;33.25
72307;PMS5003;60257;42.638;23.376;2024-03-17T01:14:39;66.25;53.50;31.75
72307;PMS5003;60257;42.638;23.376;2024-03-17T01:16:40;69.50;56.50;34.00
72307;PMS5003;60257;42.638;23.376;2024-03-17T01:18:40;52.50;45.50;32.50
72307;PMS5003;60257;42.638;23.376;2024-03-17T01:20:43;70.25;56.25;33.75
72307;PMS5003;60257;42.638;23.376;2024-03-17T01:22:44;68.50;54.25;33.00
72307;PMS5003;60257;42.638;23.376;2024-03-17T01:24:44;67.75;55.75;33.75
72307;PMS5003;60257;42.638;23.376;2024-03-17T01:26:46;61.00;51.75;35.00
72307;PMS5003;60257;42.638;23.376;2024-03-17T01:28:46;64.50;52.75;34.00
72307;PMS5003;60257;42.638;23.376;2024-03-17T01:30:47;65.25;53.25;31.25
72307;PMS5003;60257;42.638;23.376;2024-03-17T01:32:48;67.75;55.75;33.00
72307;PMS5003;60257;42.638;23.376;2024-03-17T01:34:49;68.25;54.00;32.50
72307;PMS5003;60257;42.638;23.376;2024-03-17T01:36:49;68.00;54.25;33.25
72307;PMS5003;60257;42.638;23.376;2024-03-17T01:38:49;62.25;49.75;34.00
72307;PMS5003;60257;42.638;23.376;2024-03-17T01:40:50;71.50;56.00;34.00
72307;PMS5003;60257;42.638;23.376;2024-03-17T01:42:50;73.00;58.25;35.00
72307;PMS5003;60257;42.638;23.376;2024-03-17T01:44:51;67.00;53.75;34.00
72307;PMS5003;60257;42.638;23.376;2024-03-17T01:46:51;70.75;58.50;35.75
72307;PMS5003;60257;42.638;23.376;2024-03-17T01:48:53;69.50;55.25;34.00
72307;PMS5003;60257;42.638;23.376;2024-03-17T01:50:55;73.25;57.00;34.25
72307;PMS5003;60257;42.638;23.376;2024-03-17T01:52:58;62.75;50.00;31.25
72307;PMS5003;60257;42.638;23.376;2024-03-17T01:55:02;70.50;55.50;33.25
72307;PMS5003;60257;42.638;23.376;2024-03-17T01:57:03;59.75;49.00;27.75
72307;PMS5003;60257;42.638;23.376;2024-03-17T01:59:03;69.50;55.25;33.25
72307;PMS5003;60257;42.638;23.376;2024-03-17T02:01:04;69.50;56.75;34.75
72307;PMS5003;60257;42.638;23.376;2024-03-17T02:03:06;72.50;56.00;33.00
72307;PMS5003;60257;42.638;23.376;2024-03-17T02:05:08;66.25;54.00;33.00
72307;PMS5003;60257;42.638;23.376;2024-03-17T02:07:10;64.00;51.75;31.00
72307;PMS5003;60257;42.638;23.376;2024-03-17T02:09:10;70.75;56.50;33.25
72307;PMS5003;60257;42.638;23.376;2024-03-17T02:11:14;63.50;51.00;33.25
72307;PMS5003;60257;42.638;23.376;2024-03-17T02:13:26;72.25;56.25;33.25
72307;PMS5003;60257;42.638;23.376;2024-03-17T02:15:27;69.00;55.00;33.75
72307;PMS5003;60257;42.638;23.376;2024-03-17T02:17:28;68.50;55.50;32.50
72307;PMS5003;60257;42.638;23.376;2024-03-17T02:19:28;61.50;49.50;31.00
72307;PMS5003;60257;42.638;23.376;2024-03-17T02:21:29;69.25;55.25;32.50
72307;PMS5003;60257;42.638;23.376;2024-03-17T02:23:30;70.50;55.25;34.00
72307;PMS5003;60257;42.638;23.376;2024-03-17T02:25:33;65.75;54.00;34.25
72307;PMS5003;60257;42.638;23.376;2024-03-17T02:27:34;72.75;58.25;33.00
72307;PMS5003;60257;42.638;23.376;2024-03-17T02:29:35;68.50;54.00;33.00
72307;PMS5003;60257;42.638;23.376;2024-03-17T02:31:36;67.50;54.25;32.75
72307;PMS5003;60257;42.638;23.376;2024-03-17T02:33:37;70.75;56.75;33.25
72307;PMS5003;60257;42.638;23.376;2024-03-17T02:35:38;71.25;58.50;33.50
72307;PMS5003;60257;42.638;23.376;2024-03-17T02:37:38;67.75;56.00;35.00
72307;PMS5003;60257;42.638;23.376;2024-03-17T02:39:39;64.25;53.50;32.25
72307;PMS5003;60257;42.638;23.376;2024-03-17T02:41:42;73.25;59.25;35.50
72307;PMS5003;60257;42.638;23.376;2024-03-17T02:43:43;71.25;57.25;36.25
72307;PMS5003;60257;42.638;23.376;2024-03-17T02:45:45;63.50;52.25;31.00
72307;PMS5003;60257;42.638;23.376;2024-03-17T02:47:45;67.25;54.00;33.25
72307;PMS5003;60257;42.638;23.376;2024-03-17T02:49:45;73.00;57.75;34.00
72307;PMS5003;60257;42.638;23.376;2024-03-17T02:51:50;65.50;55.00;30.75
72307;PMS5003;60257;42.638;23.376;2024-03-17T02:53:50;70.00;56.50;35.00
72307;PMS5003;60257;42.638;23.376;2024-03-17T02:55:51;59.25;49.75;32.75
72307;PMS5003;60257;42.638;23.376;2024-03-17T02:57:51;65.25;53.00;29.75
72307;PMS5003;60257;42.638;23.376;2024-03-17T02:59:52;63.00;52.25;31.00
72307;PMS5003;60257;42.638;23.376;2024-03-17T03:01:52;69.75;54.25;31.00
72307;PMS5003;60257;42.638;23.376;2024-03-17T03:03:52;62.50;50.25;30.25
72307;PMS5003;60257;42.638;23.376;2024-03-17T03:05:53;69.00;54.75;31.50
72307;PMS5003;60257;42.638;23.376;2024-03-17T03:07:53;70.25;55.25;33.00
72307;PMS5003;60257;42.638;23.376;2024-03-17T03:09:53;64.00;53.25;32.75
72307;PMS5003;60257;42.638;23.376;2024-03-17T03:11:54;66.25;53.75;32.50
72307;PMS5003;60257;42.638;23.376;2024-03-17T03:13:54;64.25;52.50;31.50
72307;PMS5003;60257;42.638;23.376;2024-03-17T03:15:55;70.00;55.00;33.25
72307;PMS5003;60257;42.638;23.376;2024-03-17T03:17:55;67.50;54.75;33.00
72307;PMS5003;60257;42.638;23.376;2024-03-17T03:19:55;58.25;49.25;31.75
72307;PMS5003;60257;42.638;23.376;2024-03-17T03:21:56;64.75;53.00;31.25
72307;PMS5003;60257;42.638;23.376;2024-03-17T03:23:56;64.25;52.75;33.00
72307;PMS5003;60257;42.638;23.376;2024-03-17T03:25:57;69.50;56.25;33.00
72307;PMS5003;60257;42.638;23.376;2024-03-17T03:27:58;67.75;52.25;33.00
72307;PMS5003;60257;42.638;23.376;2024-03-17T03:29:59;67.25;56.00;33.25
72307;PMS5003;60257;42.638;23.376;2024-03-17T03:32:00;60.75;50.75;33.00
72307;PMS5003;60257;42.638;23.376;2024-03-17T03:34:00;63.75;51.25;29.00
72307;PMS5003;60257;42.638;23.376;2024-03-17T03:36:13;65.50;52.50;32.00
72307;PMS5003;60257;42.638;23.376;2024-03-17T03:38:14;62.25;51.25;31.25
72307;PMS5003;60257;42.638;23.376;2024-03-17T03:40:15;62.75;51.00;30.75
72307;PMS5003;60257;42.638;23.376;2024-03-17T03:42:18;68.00;54.75;33.00
72307;PMS5003;60257;42.638;23.376;2024-03-17T03:44:18;61.00;50.75;29.50
72307;PMS5003;60257;42.638;23.376;2024-03-17T03:46:19;68.50;54.00;31.75
72307;PMS5003;60257;42.638;23.376;2024-03-17T03:48:20;61.25;52.00;30.75
72307;PMS5003;60257;42.638;23.376;2024-03-17T03:50:21;67.50;54.50;32.75
72307;PMS5003;60257;42.638;23.376;2024-03-17T03:52:23;63.75;51.25;31.00
72307;PMS5003;60257;42.638;23.376;2024-03-17T03:54:24;68.75;52.25;32.00
72307;PMS5003;60257;42.638;23.376;2024-03-17T03:56:25;57.00;48.00;32.25
72307;PMS5003;60257;42.638;23.376;2024-03-17T03:58:25;63.25;51.00;30.50
72307;PMS5003;60257;42.638;23.376;2024-03-17T04:00:26;62.00;51.25;32.25
72307;PMS5003;60257;42.638;23.376;2024-03-17T04:02:29;62.50;52.00;30.50
72307;PMS5003;60257;42.638;23.376;2024-03-17T04:04:31;69.50;57.00;34.50
72307;PMS5003;60257;42.638;23.376;2024-03-17T04:06:32;64.50;49.25;30.75
72307;PMS5003;60257;42.638;23.376;2024-03-17T04:08:33;68.75;54.00;33.25
72307;PMS5003;60257;42.638;23.376;2024-03-17T04:10:34;65.75;52.50;32.50
72307;PMS5003;60257;42.638;23.376;2024-03-17T04:12:35;75.25;58.00;34.25
72307;PMS5003;60257;42.638;23.376;2024-03-17T04:14:35;65.00;52.25;31.50
72307;PMS5003;60257;42.638;23.376;2024-03-17T04:16:36;71.75;58.00;34.00
72307;PMS5003;60257;42.638;23.376;2024-03-17T04:18:36;69.00;53.00;31.75
72307;PMS5003;60257;42.638;23.376;2024-03-17T04:20:39;66.75;55.50;34.00
72307;PMS5003;60257;42.638;23.376;2024-03-17T04:22:40;58.00;47.75;23.75
72307;PMS5003;60257;42.638;23.376;2024-03-17T04:24:43;66.75;54.00;33.50
72307;PMS5003;60257;42.638;23.376;2024-03-17T04:26:44;66.25;53.50;31.25
72307;PMS5003;60257;42.638;23.376;2024-03-17T04:28:44;65.75;53.25;32.25
72307;PMS5003;60257;42.638;23.376;2024-03-17T04:30:45;62.25;50.00;32.25
72307;PMS5003;60257;42.638;23.376;2024-03-17T04:32:48;66.50;55.00;32.25
72307;PMS5003;60257;42.638;23.376;2024-03-17T04:34:49;66.50;54.00;31.25
72307;PMS5003;60257;42.638;23.376;2024-03-17T04:36:50;66.50;54.50;32.75
72307;PMS5003;60257;42.638;23.376;2024-03-17T04:38:50;76.25;57.00;34.00
72307;PMS5003;60257;42.638;23.376;2024-03-17T04:40:52;64.75;53.00;32.00
72307;PMS5003;60257;42.638;23.376;2024-03-17T04:42:59;68.50;55.00;32.75
72307;PMS5003;60257;42.638;23.376;2024-03-17T04:45:00;66.25;52.25;33.50
72307;PMS5003;60257;42.638;23.376;2024-03-17T04:47:01;66.50;54.25;33.75
72307;PMS5003;60257;42.638;23.376;2024-03-17T04:49:05;61.00;51.50;32.00
72307;PMS5003;60257;42.638;23.376;2024-03-17T04:51:06;61.50;51.00;32.00
72307;PMS5003;60257;42.638;23.376;2024-03-17T04:53:06;61.00;50.50;32.00
72307;PMS5003;60257;42.638;23.376;2024-03-17T04:55:07;60.75;50.75;30.00
72307;PMS5003;60257;42.638;23.376;2024-03-17T04:57:07;64.25;53.00;33.50
72307;PMS5003;60257;42.638;23.376;2024-03-17T04:59:07;64.50;52.25;32.50
72307;PMS5003;60257;42.638;23.376;2024-03-17T05:01:08;58.50;47.50;24.25
72307;PMS5003;60257;42.638;23.376;2024-03-17T05:03:09;60.75;50.25;33.00
72307;PMS5003;60257;42.638;23.376;2024-03-17T05:05:09;66.50;53.00;32.25
72307;PMS5003;60257;42.638;23.376;2024-03-17T05:07:10;69.00;54.75;34.00
72307;PMS5003;60257;42.638;23.376;2024-03-17T05:09:10;67.75;55.00;33.25
72307;PMS5003;60257;42.638;23.376;2024-03-17T05:11:13;66.75;54.50;34.00
72307;PMS5003;60257;42.638;23.376;2024-03-17T05:13:16;66.75;53.50;32.50
72307;PMS5003;60257;42.638;23.376;2024-03-17T05:15:16;66.25;54.50;33.25
72307;PMS5003;60257;42.638;23.376;2024-03-17T05:17:16;61.75;52.00;32.75
72307;PMS5003;60257;42.638;23.376;2024-03-17T05:19:17;63.50;52.00;31.50
72307;PMS5003;60257;42.638;23.376;2024-03-17T05:21:18;64.50;51.25;30.25
72307;PMS5003;60257;42.638;23.376;2024-03-17T05:23:18;62.75;51.25;31.25
72307;PMS5003;60257;42.638;23.376;2024-03-17T05:25:18;65.25;53.00;32.50
72307;PMS5003;60257;42.638;23.376;2024-03-17T05:27:19;63.50;53.50;33.50
72307;PMS5003;60257;42.638;23.376;2024-03-17T05:29:19;59.75;49.75;33.00
72307;PMS5003;60257;42.638;23.376;2024-03-17T05:31:20;63.25;51.00;30.00
72307;PMS5003;60257;42.638;23.376;2024-03-17T05:33:22;64.50;51.00;31.00
72307;PMS5003;60257;42.638;23.376;2024-03-17T05:35:24;75.25;60.50;37.25
72307;PMS5003;60257;42.638;23.376;2024-03-17T05:37:25;66.25;53.50;32.75
72307;PMS5003;60257;42.638;23.376;2024-03-17T05:39:27;66.25;54.25;33.25
72307;PMS5003;60257;42.638;23.376;2024-03-17T05:41:28;71.00;56.75;35.75
72307;PMS5003;60257;42.638;23.376;2024-03-17T05:43:29;64.25;53.75;31.75
72307;PMS5003;60257;42.638;23.376;2024-03-17T05:45:31;72.00;56.00;33.00
72307;PMS5003;60257;42.638;23.376;2024-03-17T05:47:32;60.75;48.75;31.75
72307;PMS5003;60257;42.638;23.376;2024-03-17T05:49:32;73.00;58.00;35.75
72307;PMS5003;60257;42.638;23.376;2024-03-17T05:51:33;72.50;57.25;33.75
72307;PMS5003;60257;42.638;23.376;2024-03-17T05:53:33;67.25;53.50;35.00
72307;PMS5003;60257;42.638;23.376;2024-03-17T05:55:37;66.00;54.75;33.75
72307;PMS5003;60257;42.638;23.376;2024-03-17T05:57:37;68.25;54.25;33.00
72307;PMS5003;60257;42.638;23.376;2024-03-17T05:59:38;68.50;55.00;32.00
72307;PMS5003;60257;42.638;23.376;2024-03-17T06:01:38;68.25;54.50;33.00
72307;PMS5003;60257;42.638;23.376;2024-03-17T06:03:39;71.50;57.00;35.00
72307;PMS5003;60257;42.638;23.376;2024-03-17T06:05:40;69.25;56.00;33.00
72307;PMS5003;60257;42.638;23.376;2024-03-17T06:07:40;57.25;47.00;33.00
72307;PMS5003;60257;42.638;23.376;2024-03-17T06:09:41;61.25;51.50;32.25
72307;PMS5003;60257;42.638;23.376;2024-03-17T06:11:41;58.00;47.00;29.50
72307;PMS5003;60257;42.638;23.376;2024-03-17T06:13:42;59.25;48.25;30.25
72307;PMS5003;60257;42.638;23.376;2024-03-17T06:15:45;61.25;49.25;28.25
72307;PMS5003;60257;42.638;23.376;2024-03-17T06:17:49;62.00;51.00;30.50
72307;PMS5003;60257;42.638;23.376;2024-03-17T06:19:51;55.75;46.00;30.00
72307;PMS5003;60257;42.638;23.376;2024-03-17T06:21:52;58.50;47.25;28.00
72307;PMS5003;60257;42.638;23.376;2024-03-17T06:23:52;63.00;52.50;32.00
72307;PMS5003;60257;42.638;23.376;2024-03-17T06:25:53;57.75;47.25;29.75
72307;PMS5003;60257;42.638;23.376;2024-03-17T06:27:56;63.00;51.00;31.00
72307;PMS5003;60257;42.638;23.376;2024-03-17T06:29:57;62.50;50.00;30.50
72307;PMS5003;60257;42.638;23.376;2024-03-17T06:31:57;61.00;49.50;31.00
72307;PMS5003;60257;42.638;23.376;2024-03-17T06:33:58;62.75;51.00;31.25
72307;PMS5003;60257;42.638;23.376;2024-03-17T06:36:01;59.33;49.33;32.00
72307;PMS5003;60257;42.638;23.376;2024-03-17T06:38:04;63.00;51.50;31.00
72307;PMS5003;60257;42.638;23.376;2024-03-17T06:40:05;54.50;44.00;26.25
72307;PMS5003;60257;42.638;23.376;2024-03-17T06:42:06;60.75;49.75;30.50
72307;PMS5003;60257;42.638;23.376;2024-03-17T06:44:09;60.00;49.00;29.75
72307;PMS5003;60257;42.638;23.376;2024-03-17T06:46:09;59.50;48.75;31.75
72307;PMS5003;60257;42.638;23.376;2024-03-17T06:48:10;56.00;46.50;29.25
72307;PMS5003;60257;42.638;23.376;2024-03-17T06:50:10;55.75;46.75;30.50
72307;PMS5003;60257;42.638;23.376;2024-03-17T06:52:10;57.25;47.75;27.75
72307;PMS5003;60257;42.638;23.376;2024-03-17T06:54:11;57.00;46.50;27.75
72307;PMS5003;60257;42.638;23.376;2024-03-17T06:56:11;60.75;47.75;29.25
72307;PMS5003;60257;42.638;23.376;2024-03-17T06:58:11;62.00;49.50;29.75
72307;PMS5003;60257;42.638;23.376;2024-03-17T07:00:12;65.00;52.25;30.00
72307;PMS5003;60257;42.638;23.376;2024-03-17T07:02:14;56.25;47.50;30.50
72307;PMS5003;60257;42.638;23.376;2024-03-17T07:04:17;61.50;49.50;29.50
72307;PMS5003;60257;42.638;23.376;2024-03-17T07:06:17;57.25;47.75;29.75
72307;PMS5003;60257;42.638;23.376;2024-03-17T07:08:18;60.25;48.75;31.00
72307;PMS5003;60257;42.638;23.376;2024-03-17T07:10:19;61.00;49.75;31.00
72307;PMS5003;60257;42.638;23.376;2024-03-17T07:12:20;66.25;53.25;34.00
72307;PMS5003;60257;42.638;23.376;2024-03-17T07:14:20;58.25;49.25;31.00
72307;PMS5003;60257;42.638;23.376;2024-03-17T07:16:20;59.25;48.25;32.00
72307;PMS5003;60257;42.638;23.376;2024-03-17T07:18:25;60.00;48.75;31.25
72307;PMS5003;60257;42.638;23.376;2024-03-17T07:20:27;60.50;48.50;30.25
72307;PMS5003;60257;42.638;23.376;2024-03-17T07:22:27;63.25;51.00;32.00
72307;PMS5003;60257;42.638;23.376;2024-03-17T07:24:28;55.00;46.75;29.25
72307;PMS5003;60257;42.638;23.376;2024-03-17T07:26:30;59.25;49.25;30.25
72307;PMS5003;60257;42.638;23.376;2024-03-17T07:28:31;59.50;48.75;30.00
72307;PMS5003;60257;42.638;23.376;2024-03-17T07:30:31;59.50;49.00;31.00
72307;PMS5003;60257;42.638;23.376;2024-03-17T07:32:32;52.75;44.00;25.00
72307;PMS5003;60257;42.638;23.376;2024-03-17T07:34:32;58.50;48.25;30.50
72307;PMS5003;60257;42.638;23.376;2024-03-17T07:36:33;60.25;49.25;30.25
72307;PMS5003;60257;42.638;23.376;2024-03-17T07:38:33;56.25;47.00;29.00
72307;PMS5003;60257;42.638;23.376;2024-03-17T07:40:35;56.50;48.00;29.00
72307;PMS5003;60257;42.638;23.376;2024-03-17T07:42:36;50.00;43.33;28.00
72307;PMS5003;60257;42.638;23.376;2024-03-17T07:44:37;45.33;38.33;25.00
72307;PMS5003;60257;42.638;23.376;2024-03-17T07:46:37;52.33;43.33;27.33
72307;PMS5003;60257;42.638;23.376;2024-03-17T07:48:39;51.33;43.33;26.00
72307;PMS5003;60257;42.638;23.376;2024-03-17T07:50:40;49.00;41.00;25.00
72307;PMS5003;60257;42.638;23.376;2024-03-17T07:52:41;54.00;45.25;29.50
72307;PMS5003;60257;42.638;23.376;2024-03-17T07:54:41;54.33;46.00;29.00
72307;PMS5003;60257;42.638;23.376;2024-03-17T07:56:42;58.33;47.00;30.00
72307;PMS5003;60257;42.638;23.376;2024-03-17T07:58:43;54.00;45.00;29.33
72307;PMS5003;60257;42.638;23.376;2024-03-17T08:00:44;58.67;48.00;28.33
72307;PMS5003;60257;42.638;23.376;2024-03-17T08:02:44;63.75;50.25;31.50
72307;PMS5003;60257;42.638;23.376;2024-03-17T08:04:45;66.25;52.25;33.25
72307;PMS5003;60257;42.638;23.376;2024-03-17T08:06:46;64.50;52.00;32.75
72307;PMS5003;60257;42.638;23.376;2024-03-17T08:08:46;63.75;52.00;32.75
72307;PMS5003;60257;42.638;23.376;2024-03-17T08:10:46;58.50;48.50;32.00
72307;PMS5003;60257;42.638;23.376;2024-03-17T08:12:50;52.50;44.50;29.00
72307;PMS5003;60257;42.638;23.376;2024-03-17T08:14:50;58.75;47.00;31.50
72307;PMS5003;60257;42.638;23.376;2024-03-17T08:16:50;55.00;47.00;27.50
72307;PMS5003;60257;42.638;23.376;2024-03-17T08:18:51;61.50;49.50;30.50
72307;PMS5003;60257;42.638;23.376;2024-03-17T08:20:51;54.75;44.75;28.75
72307;PMS5003;60257;42.638;23.376;2024-03-17T08:22:51;56.00;46.00;29.00
72307;PMS5003;60257;42.638;23.376;2024-03-17T08:24:52;56.00;46.33;29.67
72307;PMS5003;60257;42.638;23.376;2024-03-17T08:26:53;53.00;42.00;25.67
72307;PMS5003;60257;42.638;23.376;2024-03-17T08:28:53;52.00;43.33;27.00
72307;PMS5003;60257;42.638;23.376;2024-03-17T08:30:56;49.67;43.00;27.67
72307;PMS5003;60257;42.638;23.376;2024-03-17T08:32:59;49.00;42.00;27.33
72307;PMS5003;60257;42.638;23.376;2024-03-17T08:34:59;49.67;42.00;25.33
72307;PMS5003;60257;42.638;23.376;2024-03-17T08:37:00;49.33;40.33;24.00
72307;PMS5003;60257;42.638;23.376;2024-03-17T08:39:00;49.00;41.67;26.00
72307;PMS5003;60257;42.638;23.376;2024-03-17T08:41:02;43.33;37.00;24.00
72307;PMS5003;60257;42.638;23.376;2024-03-17T08:43:06;50.33;41.33;26.33
72307;PMS5003;60257;42.638;23.376;2024-03-17T08:45:07;47.67;38.33;24.00
72307;PMS5003;60257;42.638;23.376;2024-03-17T08:47:08;44.00;38.67;21.00
72307;PMS5003;60257;42.638;23.376;2024-03-17T08:49:08;42.33;37.00;24.00
72307;PMS5003;60257;42.638;23.376;2024-03-17T08:51:09;52.33;43.67;27.33
72307;PMS5003;60257;42.638;23.376;2024-03-17T08:53:10;52.00;42.67;25.00
72307;PMS5003;60257;42.638;23.376;2024-03-17T08:55:10;49.33;42.33;24.67
72307;PMS5003;60257;42.638;23.376;2024-03-17T08:57:14;53.67;43.33;25.33
72307;PMS5003;60257;42.638;23.376;2024-03-17T08:59:14;46.67;39.67;25.00
72307;PMS5003;60257;42.638;23.376;2024-03-17T09:01:15;48.00;39.00;23.67
72307;PMS5003;60257;42.638;23.376;2024-03-17T09:03:16;47.00;39.67;24.67
72307;PMS5003;60257;42.638;23.376;2024-03-17T09:05:17;52.67;43.00;27.00
72307;PMS5003;60257;42.638;23.376;2024-03-17T09:07:18;50.67;43.33;28.00
72307;PMS5003;60257;42.638;23.376;2024-03-17T09:09:18;44.67;37.33;24.00
72307;PMS5003;60257;42.638;23.376;2024-03-17T09:11:18;48.00;40.00;24.33
72307;PMS5003;60257;42.638;23.376;2024-03-17T09:13:24;47.67;40.00;24.00
72307;PMS5003;60257;42.638;23.376;2024-03-17T09:15:26;52.00;43.00;26.67
72307;PMS5003;60257;42.638;23.376;2024-03-17T09:17:26;47.67;40.33;26.33
72307;PMS5003;60257;42.638;23.376;2024-03-17T09:19:26;51.00;43.33;27.00
72307;PMS5003;60257;42.638;23.376;2024-03-17T09:21:29;45.33;37.33;23.67
72307;PMS5003;60257;42.638;23.376;2024-03-17T09:23:29;44.33;38.00;23.00
72307;PMS5003;60257;42.638;23.376;2024-03-17T09:25:31;43.33;38.33;23.67
72307;PMS5003;60257;42.638;23.376;2024-03-17T09:27:31;47.33;40.00;24.67
72307;PMS5003;60257;42.638;23.376;2024-03-17T09:29:32;48.33;40.33;24.00
72307;PMS5003;60257;42.638;23.376;2024-03-17T09:31:33;44.00;38.00;24.33
72307;PMS5003;60257;42.638;23.376;2024-03-17T09:33:35;40.67;36.33;21.00
72307;PMS5003;60257;42.638;23.376;2024-03-17T09:35:38;39.33;35.00;23.33
72307;PMS5003;60257;42.638;23.376;2024-03-17T09:37:38;36.33;33.33;22.67
72307;PMS5003;60257;42.638;23.376;2024-03-17T09:39:39;34.67;33.33;22.00
72307;PMS5003;60257;42.638;23.376;2024-03-17T09:41:39;36.67;32.00;21.00
72307;PMS5003;60257;42.638;23.376;2024-03-17T09:43:40;36.33;33.67;20.00
72307;PMS5003;60257;42.638;23.376;2024-03-17T09:45:40;31.00;28.67;19.33
72307;PMS5003;60257;42.638;23.376;2024-03-17T09:47:41;30.00;25.33;16.33
72307;PMS5003;60257;42.638;23.376;2024-03-17T09:49:42;35.00;33.00;21.00
72307;PMS5003;60257;42.638;23.376;2024-03-17T09:51:42;43.00;36.67;23.00
72307;PMS5003;60257;42.638;23.376;2024-03-17T09:53:43;36.67;34.00;21.00
72307;PMS5003;60257;42.638;23.376;2024-03-17T09:55:44;23.00;22.33;16.00
72307;PMS5003;60257;42.638;23.376;2024-03-17T09:57:44;23.33;23.00;15.67
72307;PMS5003;60257;42.638;23.376;2024-03-17T09:59:49;32.67;31.00;18.67
72307;PMS5003;60257;42.638;23.376;2024-03-17T10:01:50;23.67;23.33;16.00
72307;PMS5003;60257;42.638;23.376;2024-03-17T10:03:51;29.00;22.67;14.33
72307;PMS5003;60257;42.638;23.376;2024-03-17T10:06:02;22.33;21.67;13.00
72307;PMS5003;60257;42.638;23.376;2024-03-17T10:08:02;16.67;16.67;9.00
72307;PMS5003;60257;42.638;23.376;2024-03-17T10:10:21;18.33;16.33;10.33
72307;PMS5003;60257;42.638;23.376;2024-03-17T10:12:28;16.00;16.00;10.00
72307;PMS5003;60257;42.638;23.376;2024-03-17T10:14:29;14.67;13.33;6.00
72307;PMS5003;60257;42.638;23.376;2024-03-17T10:16:30;18.33;18.33;12.00
72307;PMS5003;60257;42.638;23.376;2024-03-17T10:18:32;16.67;16.67;10.00
72307;PMS5003;60257;42.638;23.376;2024-03-17T10:20:32;21.00;19.67;12.33
72307;PMS5003;60257;42.638;23.376;2024-03-17T10:22:32;18.33;15.33;11.00
72307;PMS5003;60257;42.638;23.376;2024-03-17T10:24:33;14.67;14.67;11.33
72307;PMS5003;60257;42.638;23.376;2024-03-17T10:26:38;20.75;18.50;11.50
72307;PMS5003;60257;42.638;23.376;2024-03-17T10:28:43;20.33;18.67;10.00
72307;PMS5003;60257;42.638;23.376;2024-03-17T10:30:56;18.00;17.25;11.25
72307;PMS5003;60257;42.638;23.376;2024-03-17T10:32:58;20.67;20.67;12.67
72307;PMS5003;60257;42.638;23.376;2024-03-17T10:35:00;19.00;18.75;11.75
72307;PMS5003;60257;42.638;23.376;2024-03-17T10:37:16;19.67;19.67;13.00
72307;PMS5003;60257;42.638;23.376;2024-03-17T10:39:27;24.67;21.67;14.67
72307;PMS5003;60257;42.638;23.376;2024-03-17T10:41:31;23.00;23.00;15.33
72307;PMS5003;60257;42.638;23.376;2024-03-17T10:43:33;14.00;13.25;8.25
72307;PMS5003;60257;42.638;23.376;2024-03-17T10:45:34;12.25;12.25;8.00
72307;PMS5003;60257;42.638;23.376;2024-03-17T10:47:35;19.00;17.50;10.25
72307;PMS5003;60257;42.638;23.376;2024-03-17T10:49:36;14.75;14.25;9.75
72307;PMS5003;60257;42.638;23.376;2024-03-17T10:51:38;14.50;13.50;8.25
72307;PMS5003;60257;42.638;23.376;2024-03-17T10:53:40;17.00;14.75;9.00
72307;PMS5003;60257;42.638;23.376;2024-03-17T10:55:46;13.75;13.50;8.75
72307;PMS5003;60257;42.638;23.376;2024-03-17T10:57:47;12.00;12.00;8.50
72307;PMS5003;60257;42.638;23.376;2024-03-17T10:59:49;12.00;12.00;8.00
72307;PMS5003;60257;42.638;23.376;2024-03-17T11:01:50;10.50;10.50;7.75
72307;PMS5003;60257;42.638;23.376;2024-03-17T11:03:51;14.00;12.00;8.00
72307;PMS5003;60257;42.638;23.376;2024-03-17T11:05:52;13.00;12.00;8.00
72307;PMS5003;60257;42.638;23.376;2024-03-17T11:07:53;12.75;12.75;8.50
72307;PMS5003;60257;42.638;23.376;2024-03-17T11:09:55;12.25;11.25;8.50